Time;durP1;ratioP1;P1;durP2;ratioP2;P2;SDS_P1;SDS_P2;PMS_P1;PMS_P2;Temp;Humidity;BMP_temperature;BMP_pressure;BME280_temperature;BME280_humidity;BME280_pressure;Samples;Min_cycle;Max_cycle;Signal;HPM_P1;HPM_P2
2021/11/30 00:01:31;;;;;;;16.42;10.95;;;3.10;99.90;;;;;;5066566;28;20197;-62
2021/11/30 00:03:58;;;;;;;11.97;9.17;;;3.10;99.90;;;;;;5079069;28;20185;-62
2021/11/30 00:06:24;;;;;;;14.38;10.48;;;3.10;99.90;;;;;;5076918;28;20672;-62
2021/11/30 00:08:57;;;;;;;14.50;9.63;;;3.10;99.90;;;;;;5079411;28;20216;-61
2021/11/30 00:11:23;;;;;;;13.32;9.30;;;3.10;99.90;;;;;;5076897;28;20434;-61
2021/11/30 00:13:48;;;;;;;12.77;9.20;;;3.10;99.90;;;;;;5072110;28;20577;-59
2021/11/30 00:16:16;;;;;;;12.60;9.63;;;3.10;99.90;;;;;;5072134;28;20666;-61
2021/11/30 00:18:41;;;;;;;13.43;9.10;;;3.10;99.90;;;;;;5070733;28;20661;-61
2021/11/30 00:21:10;;;;;;;14.37;10.00;;;3.10;99.90;;;;;;5072132;28;20209;-61
2021/11/30 00:23:36;;;;;;;14.60;9.48;;;3.10;99.90;;;;;;5077667;28;20258;-61
2021/11/30 00:26:03;;;;;;;12.90;9.13;;;3.10;99.90;;;;;;5074149;28;20193;-61
2021/11/30 00:28:29;;;;;;;12.57;9.05;;;3.10;99.90;;;;;;5082042;28;20189;-61
2021/11/30 00:30:54;;;;;;;13.27;9.70;;;3.10;99.90;;;;;;5071416;28;20926;-61
2021/11/30 00:33:20;;;;;;;11.77;7.70;;;3.20;99.90;;;;;;5072396;28;20239;-61
2021/11/30 00:35:46;;;;;;;12.30;7.67;;;3.20;99.90;;;;;;5070927;28;20189;-62
2021/11/30 00:38:16;;;;;;;11.57;8.37;;;3.20;99.90;;;;;;5083908;28;20344;-61
2021/11/30 00:40:42;;;;;;;14.15;9.32;;;3.10;99.90;;;;;;5082761;28;20280;-62
2021/11/30 00:43:09;;;;;;;12.80;8.45;;;3.20;99.90;;;;;;5074455;28;20206;-61
2021/11/30 00:45:47;;;;;;;9.38;7.30;;;3.20;99.90;;;;;;5091446;28;20181;-62
2021/11/30 00:48:19;;;;;;;12.45;8.50;;;3.20;99.90;;;;;;5063974;28;20196;-62
2021/11/30 00:50:45;;;;;;;11.27;7.93;;;3.20;99.90;;;;;;5070932;28;20327;-62
2021/11/30 00:53:11;;;;;;;12.70;9.15;;;3.20;99.90;;;;;;5066258;28;20188;-62
2021/11/30 00:55:38;;;;;;;10.63;8.55;;;3.20;99.90;;;;;;5071376;28;20186;-62
2021/11/30 00:58:04;;;;;;;11.43;8.35;;;3.30;99.90;;;;;;5086325;28;20670;-62
2021/11/30 01:00:34;;;;;;;11.90;7.85;;;3.30;99.90;;;;;;5076299;28;20608;-62
2021/11/30 01:03:01;;;;;;;11.13;8.20;;;3.30;99.90;;;;;;5085329;28;20204;-62
2021/11/30 01:05:26;;;;;;;10.77;7.50;;;3.20;99.90;;;;;;5069070;28;20186;-62
2021/11/30 01:07:52;;;;;;;11.47;8.83;;;3.20;99.90;;;;;;5070983;28;20554;-63
2021/11/30 01:10:18;;;;;;;14.80;8.60;;;3.20;99.90;;;;;;5068763;28;20185;-63
2021/11/30 01:12:44;;;;;;;9.87;7.57;;;3.10;99.90;;;;;;5074605;28;20335;-62
2021/11/30 01:15:16;;;;;;;12.57;8.40;;;3.20;99.90;;;;;;5068830;28;20436;-62
2021/11/30 01:17:42;;;;;;;10.27;7.95;;;3.20;99.90;;;;;;5070996;28;20424;-63
2021/11/30 01:20:09;;;;;;;12.13;8.95;;;3.20;99.90;;;;;;5069775;28;20182;-63
2021/11/30 01:22:36;;;;;;;11.63;8.55;;;3.20;99.90;;;;;;5087933;28;20229;-62
2021/11/30 01:25:03;;;;;;;12.73;8.63;;;3.20;99.90;;;;;;5075712;28;20552;-62
2021/11/30 01:27:28;;;;;;;12.98;8.48;;;3.20;99.90;;;;;;5074506;28;20196;-62
2021/11/30 01:29:54;;;;;;;11.80;8.03;;;3.20;99.90;;;;;;5072054;28;20293;-62
2021/11/30 01:32:20;;;;;;;11.63;8.53;;;3.20;99.90;;;;;;5070686;28;20511;-63
2021/11/30 01:34:45;;;;;;;11.90;8.43;;;3.10;99.90;;;;;;5069855;28;20264;-62
2021/11/30 01:37:16;;;;;;;10.33;7.70;;;3.10;99.90;;;;;;5072704;28;20557;-64
2021/11/30 01:39:43;;;;;;;9.35;7.40;;;3.10;99.90;;;;;;5069393;28;20351;-62
2021/11/30 01:42:12;;;;;;;12.32;8.60;;;3.20;99.90;;;;;;5078853;28;20173;-62
2021/11/30 01:47:12;;;;;;;12.38;8.65;;;3.10;99.90;;;;;;5072884;28;20235;-62
2021/11/30 01:49:39;;;;;;;10.98;8.25;;;3.10;99.90;;;;;;5068736;28;20222;-61
2021/11/30 01:52:09;;;;;;;11.57;7.90;;;3.20;99.90;;;;;;5070273;28;20631;-63
2021/11/30 01:54:39;;;;;;;12.85;8.65;;;3.10;99.90;;;;;;5068976;28;20599;-62
2021/11/30 01:57:09;;;;;;;10.00;7.50;;;3.10;99.90;;;;;;5088574;28;20580;-61
2021/11/30 01:59:35;;;;;;;10.77;7.57;;;3.10;99.90;;;;;;5072688;28;20267;-54
2021/11/30 02:02:01;;;;;;;12.43;8.23;;;3.10;99.90;;;;;;5070118;28;20264;-62
2021/11/30 02:04:27;;;;;;;10.40;7.47;;;3.10;99.90;;;;;;5051225;28;20268;-55
2021/11/30 02:06:53;;;;;;;10.95;7.30;;;3.10;99.90;;;;;;5088847;28;20188;-61
2021/11/30 02:09:19;;;;;;;12.63;7.87;;;3.10;99.90;;;;;;5070729;28;20185;-62
2021/11/30 02:11:44;;;;;;;11.47;7.30;;;3.10;99.90;;;;;;5074336;28;20185;-61
2021/11/30 02:14:10;;;;;;;10.70;7.60;;;3.20;99.90;;;;;;5070076;28;20556;-61
2021/11/30 02:16:36;;;;;;;11.10;7.73;;;3.10;99.90;;;;;;5069764;28;20182;-62
2021/11/30 02:19:03;;;;;;;10.27;7.23;;;3.10;99.90;;;;;;5069880;28;20255;-62
2021/11/30 02:21:33;;;;;;;9.75;6.78;;;3.20;99.90;;;;;;5073044;28;20190;-62
2021/11/30 02:23:59;;;;;;;9.73;7.18;;;3.20;99.90;;;;;;5070663;28;20525;-61
2021/11/30 02:26:27;;;;;;;11.30;6.90;;;3.20;99.90;;;;;;5077299;28;20180;-62
2021/11/30 02:28:56;;;;;;;10.80;7.30;;;3.20;99.90;;;;;;5070274;28;20185;-62
2021/11/30 02:31:23;;;;;;;7.72;5.18;;;3.10;99.90;;;;;;5069884;28;20282;-62
2021/11/30 02:33:49;;;;;;;8.25;6.20;;;3.10;99.90;;;;;;5068979;28;20296;-62
2021/11/30 02:36:26;;;;;;;8.75;6.50;;;3.10;99.90;;;;;;5068475;28;20193;-62
2021/11/30 02:38:57;;;;;;;9.57;5.93;;;3.10;99.90;;;;;;5068383;28;20205;-62
2021/11/30 02:41:23;;;;;;;9.73;6.47;;;3.00;99.90;;;;;;5067729;28;20195;-62
2021/11/30 02:43:50;;;;;;;8.55;6.50;;;3.00;99.90;;;;;;5055454;28;20188;-62
2021/11/30 02:46:37;;;;;;;8.55;6.13;;;3.00;99.90;;;;;;5089839;28;20197;-62
2021/11/30 02:49:06;;;;;;;6.88;5.63;;;3.00;99.90;;;;;;5057566;28;20240;-61
2021/11/30 02:51:33;;;;;;;7.57;6.10;;;3.00;99.90;;;;;;5062808;28;20187;-61
2021/11/30 02:54:03;;;;;;;7.30;6.28;;;3.00;99.90;;;;;;5067976;28;20585;-62
2021/11/30 02:56:29;;;;;;;8.27;6.15;;;3.10;99.90;;;;;;5082757;28;20181;-62
2021/11/30 02:58:55;;;;;;;8.02;6.40;;;3.00;99.90;;;;;;5071587;28;20223;-62
2021/11/30 03:01:22;;;;;;;9.40;6.00;;;3.00;99.90;;;;;;5084318;28;20183;-61
2021/11/30 03:03:48;;;;;;;7.72;5.95;;;2.90;99.90;;;;;;5067592;28;20212;-61
2021/11/30 03:06:14;;;;;;;6.70;6.00;;;2.90;99.90;;;;;;5070253;28;20528;-61
2021/11/30 03:08:42;;;;;;;8.23;6.05;;;2.90;99.90;;;;;;5070426;28;20196;-61
2021/11/30 03:11:08;;;;;;;7.97;5.85;;;2.80;99.90;;;;;;5068425;28;20192;-62
2021/11/30 03:13:35;;;;;;;9.20;5.90;;;2.80;99.90;;;;;;5068295;28;20344;-62
2021/11/30 03:16:01;;;;;;;6.97;5.50;;;2.70;99.90;;;;;;5067915;28;20632;-62
2021/11/30 03:18:28;;;;;;;8.05;6.20;;;2.70;99.90;;;;;;5069653;28;20215;-61
2021/11/30 03:20:54;;;;;;;7.00;5.45;;;2.60;99.90;;;;;;5067720;28;20311;-62
2021/11/30 03:23:19;;;;;;;8.43;6.20;;;2.60;99.90;;;;;;5068843;28;20316;-61
2021/11/30 03:25:45;;;;;;;7.80;5.80;;;2.60;99.90;;;;;;5068437;28;20193;-62
2021/11/30 03:28:11;;;;;;;8.73;6.13;;;2.60;99.90;;;;;;5076492;28;20686;-62
2021/11/30 03:30:40;;;;;;;7.40;5.30;;;2.50;99.90;;;;;;5078913;28;20200;-62
2021/11/30 03:35:51;;;;;;;7.75;5.90;;;2.30;99.90;;;;;;5074598;28;20358;-61
2021/11/30 03:38:17;;;;;;;7.30;5.47;;;2.20;99.90;;;;;;5068142;28;20746;-62
2021/11/30 03:40:42;;;;;;;8.03;5.80;;;2.10;99.90;;;;;;5071231;28;20188;-61
2021/11/30 03:43:08;;;;;;;8.97;6.00;;;2.20;99.90;;;;;;5078825;28;20863;-62
2021/11/30 03:45:34;;;;;;;10.97;6.03;;;2.20;99.90;;;;;;5075929;28;20795;-61
2021/11/30 03:47:59;;;;;;;7.70;6.13;;;2.10;99.90;;;;;;5084514;28;20185;-61
2021/11/30 03:50:25;;;;;;;8.27;5.67;;;2.10;99.90;;;;;;5080114;28;20427;-54
2021/11/30 03:52:51;;;;;;;7.00;5.43;;;2.00;99.90;;;;;;5083599;28;20666;-63
2021/11/30 03:55:17;;;;;;;9.80;6.40;;;1.90;99.90;;;;;;5081932;28;22153;-62
2021/11/30 03:57:43;;;;;;;9.45;5.50;;;1.90;99.90;;;;;;5071828;28;20292;-63
2021/11/30 04:00:10;;;;;;;8.47;6.13;;;1.80;99.90;;;;;;5073644;28;20272;-63
2021/11/30 04:02:38;;;;;;;6.13;5.10;;;1.90;99.90;;;;;;5065633;28;20731;-63
2021/11/30 04:05:06;;;;;;;7.63;5.70;;;1.90;99.90;;;;;;5075066;28;20184;-62
2021/11/30 04:07:31;;;;;;;7.88;5.65;;;1.90;99.90;;;;;;5071823;28;20533;-62
2021/11/30 04:09:57;;;;;;;7.50;4.97;;;2.00;99.90;;;;;;5071064;28;20189;-61
2021/11/30 04:12:23;;;;;;;7.60;5.27;;;2.00;99.90;;;;;;5071031;28;20549;-64
2021/11/30 04:14:48;;;;;;;8.60;5.60;;;1.90;99.90;;;;;;5076132;28;20220;-62
2021/11/30 04:17:14;;;;;;;7.00;5.23;;;2.10;99.90;;;;;;5068968;28;20188;-62
2021/11/30 04:19:40;;;;;;;6.83;5.10;;;2.10;99.90;;;;;;5059991;28;20279;-61
2021/11/30 04:22:05;;;;;;;7.07;4.90;;;2.00;99.90;;;;;;5082713;28;20221;-61
2021/11/30 04:24:31;;;;;;;7.60;5.50;;;2.10;99.90;;;;;;5078881;28;20259;-63
2021/11/30 04:26:57;;;;;;;8.02;5.55;;;2.10;99.90;;;;;;5070643;28;20275;-62
2021/11/30 04:29:23;;;;;;;6.10;4.60;;;2.00;99.90;;;;;;5071007;28;20679;-62
2021/11/30 04:31:48;;;;;;;7.33;5.50;;;2.10;99.90;;;;;;5071466;28;20202;-62
2021/11/30 04:34:16;;;;;;;6.20;4.97;;;2.10;99.90;;;;;;5071146;28;20504;-62
2021/11/30 04:36:42;;;;;;;6.90;5.20;;;2.10;99.90;;;;;;5071265;28;20647;-62
2021/11/30 04:39:08;;;;;;;5.85;4.90;;;2.00;99.90;;;;;;5077684;28;21029;-62
2021/11/30 04:41:35;;;;;;;4.70;4.30;;;2.00;99.90;;;;;;5078508;28;20186;-62
2021/11/30 04:44:01;;;;;;;7.15;5.07;;;2.00;99.90;;;;;;5053762;28;20173;-62
2021/11/30 04:46:30;;;;;;;6.88;5.15;;;2.10;99.90;;;;;;5065377;28;20185;-62
2021/11/30 04:49:09;;;;;;;6.93;5.18;;;2.10;99.90;;;;;;5068784;28;20185;-65
2021/11/30 04:51:35;;;;;;;6.80;4.93;;;2.10;99.90;;;;;;5060289;28;20186;-61
2021/11/30 04:54:01;;;;;;;7.07;4.77;;;2.10;99.90;;;;;;5069880;28;20193;-63
2021/11/30 04:56:26;;;;;;;5.40;4.37;;;2.20;99.90;;;;;;5052137;28;20548;-63
2021/11/30 04:58:52;;;;;;;5.60;4.53;;;2.20;99.90;;;;;;5062400;28;20252;-62
2021/11/30 05:01:19;;;;;;;6.90;5.20;;;2.30;99.90;;;;;;5062231;28;20185;-62
2021/11/30 05:03:45;;;;;;;7.85;5.28;;;2.30;99.90;;;;;;5069996;28;20188;-63
2021/11/30 05:06:12;;;;;;;6.50;3.97;;;2.60;99.90;;;;;;5069010;28;20257;-62
2021/11/30 05:08:38;;;;;;;6.38;5.45;;;2.70;99.90;;;;;;5068138;28;20251;-63
2021/11/30 05:11:04;;;;;;;6.65;5.38;;;2.90;99.90;;;;;;5068959;28;20181;-62
2021/11/30 05:13:30;;;;;;;6.50;4.70;;;2.90;99.90;;;;;;5063695;28;20701;-61
2021/11/30 05:15:56;;;;;;;7.77;6.23;;;2.90;99.90;;;;;;5069900;28;20533;-63
2021/11/30 05:18:22;;;;;;;6.95;5.25;;;3.10;99.90;;;;;;5065221;28;20549;-63
2021/11/30 05:20:48;;;;;;;6.68;5.40;;;3.20;99.90;;;;;;5067303;28;20261;-63
2021/11/30 05:23:14;;;;;;;8.27;5.82;;;3.20;99.90;;;;;;5068553;28;20221;-62
2021/11/30 05:25:41;;;;;;;9.05;6.40;;;3.30;99.90;;;;;;5059110;28;20188;-62
2021/11/30 05:28:07;;;;;;;8.93;5.75;;;3.30;99.90;;;;;;5076724;28;20200;-61
2021/11/30 05:30:36;;;;;;;9.68;6.70;;;3.30;99.90;;;;;;5068856;28;20201;-61
2021/11/30 05:33:10;;;;;;;8.13;6.30;;;3.30;99.90;;;;;;5065003;28;20270;-60
2021/11/30 05:35:37;;;;;;;9.48;6.40;;;3.40;99.90;;;;;;5067558;28;20186;-63
2021/11/30 05:38:03;;;;;;;8.88;6.15;;;3.30;99.90;;;;;;5064737;28;20212;-63
2021/11/30 05:40:30;;;;;;;9.43;7.53;;;3.20;99.90;;;;;;5065390;28;20194;-62
2021/11/30 05:42:55;;;;;;;8.50;6.95;;;3.10;99.90;;;;;;5066095;28;20181;-62
2021/11/30 05:45:21;;;;;;;9.13;6.53;;;3.10;99.90;;;;;;5071389;28;20192;-61
2021/11/30 05:47:47;;;;;;;10.67;6.93;;;3.00;99.90;;;;;;5080035;28;20635;-63
2021/11/30 05:50:13;;;;;;;8.30;6.63;;;3.00;99.90;;;;;;5070384;28;20185;-63
2021/11/30 05:52:38;;;;;;;9.40;6.47;;;2.90;99.90;;;;;;5070433;28;20813;-63
2021/11/30 05:55:05;;;;;;;8.67;6.50;;;2.80;99.90;;;;;;5068816;28;20644;-62
2021/11/30 05:57:32;;;;;;;8.88;6.95;;;2.80;99.90;;;;;;5068981;28;20182;-62
2021/11/30 06:00:00;;;;;;;10.45;7.50;;;2.80;99.90;;;;;;5067068;28;20355;-60
2021/11/30 06:02:29;;;;;;;10.50;7.10;;;2.90;99.90;;;;;;5049392;28;20181;-62
2021/11/30 06:04:54;;;;;;;10.75;7.75;;;2.90;99.90;;;;;;5067125;28;20180;-63
2021/11/30 06:07:20;;;;;;;10.60;7.77;;;2.80;99.90;;;;;;5073795;28;20177;-63
2021/11/30 06:09:46;;;;;;;11.23;8.00;;;2.80;99.90;;;;;;5069635;28;20551;-63
2021/11/30 06:12:12;;;;;;;10.50;6.70;;;2.90;99.90;;;;;;5088210;28;20185;-62
2021/11/30 06:14:37;;;;;;;11.10;7.50;;;2.90;99.90;;;;;;5057637;28;20258;-63
2021/11/30 06:17:03;;;;;;;9.47;7.10;;;2.90;99.90;;;;;;5089403;28;20423;-62
2021/11/30 06:19:29;;;;;;;8.10;5.60;;;2.90;99.90;;;;;;5084341;28;20589;-63
2021/11/30 06:21:55;;;;;;;8.57;6.47;;;3.00;99.90;;;;;;5086801;28;20365;-62
2021/11/30 06:24:21;;;;;;;9.03;6.53;;;3.10;99.90;;;;;;5086887;28;20264;-63
2021/11/30 06:26:49;;;;;;;9.50;6.67;;;3.20;99.90;;;;;;5071953;28;20173;-62
2021/11/30 06:29:15;;;;;;;7.22;5.63;;;3.10;99.90;;;;;;5089780;28;20479;-62
2021/11/30 06:31:40;;;;;;;8.98;6.10;;;3.30;99.90;;;;;;5070961;28;20220;-62
2021/11/30 06:34:06;;;;;;;8.00;5.70;;;3.30;99.90;;;;;;5074788;28;20174;-62
2021/11/30 06:36:32;;;;;;;7.63;5.87;;;3.40;99.90;;;;;;5083143;28;20204;-63
2021/11/30 06:38:58;;;;;;;6.93;5.10;;;3.50;99.90;;;;;;5086788;28;20216;-62
2021/11/30 06:41:24;;;;;;;7.30;5.40;;;3.60;99.90;;;;;;5085620;28;20650;-62
2021/11/30 06:43:50;;;;;;;6.10;4.73;;;3.60;99.90;;;;;;5089600;28;20202;-63
2021/11/30 06:46:16;;;;;;;6.47;4.57;;;3.70;99.90;;;;;;5074376;28;20526;-62
2021/11/30 06:48:41;;;;;;;6.40;4.20;;;3.80;99.90;;;;;;5073450;28;20192;-63
2021/11/30 06:51:07;;;;;;;6.30;4.93;;;3.90;99.90;;;;;;5079015;28;20189;-62
2021/11/30 06:53:34;;;;;;;5.17;3.90;;;3.90;99.90;;;;;;5087297;28;20181;-63
2021/11/30 06:56:00;;;;;;;5.43;4.50;;;4.00;99.90;;;;;;5071230;28;20239;-62
2021/11/30 06:58:26;;;;;;;4.03;3.33;;;4.00;99.90;;;;;;5068955;28;20213;-59
2021/11/30 07:00:52;;;;;;;5.03;3.07;;;4.10;99.90;;;;;;5065438;28;20533;-62
2021/11/30 07:03:22;;;;;;;3.38;2.72;;;4.10;99.90;;;;;;5081874;28;20196;-64
2021/11/30 07:05:53;;;;;;;4.30;3.50;;;4.00;99.90;;;;;;5076289;28;20186;-62
2021/11/30 07:08:19;;;;;;;4.50;3.58;;;4.00;99.90;;;;;;5069065;28;20181;-62
2021/11/30 07:13:23;;;;;;;5.63;3.88;;;4.10;99.90;;;;;;5078082;28;20246;-63
2021/11/30 07:16:09;;;;;;;9.20;3.80;;;4.00;99.90;;;;;;5080971;28;20184;-56
2021/11/30 07:18:35;;;;;;;3.25;2.85;;;4.00;99.90;;;;;;5074147;28;20217;-53
2021/11/30 07:21:01;;;;;;;3.47;2.95;;;4.00;99.90;;;;;;5075004;28;20571;-51
2021/11/30 07:23:29;;;;;;;3.30;3.00;;;4.00;99.90;;;;;;5074957;28;20229;-52
2021/11/30 07:25:55;;;;;;;4.50;3.80;;;4.00;99.90;;;;;;5056592;28;20432;-55
2021/11/30 07:28:28;;;;;;;4.00;2.83;;;4.00;99.90;;;;;;5095104;28;20654;-55
2021/11/30 07:30:56;;;;;;;3.85;2.70;;;4.00;99.90;;;;;;5089882;28;20185;-53
2021/11/30 07:33:21;;;;;;;4.40;2.95;;;4.00;99.90;;;;;;5088953;28;20181;-55
2021/11/30 07:35:47;;;;;;;3.50;2.80;;;4.00;99.90;;;;;;5091143;28;20184;-52
2021/11/30 07:38:13;;;;;;;4.07;3.33;;;4.00;99.90;;;;;;5065880;28;20684;-55
2021/11/30 07:40:38;;;;;;;3.27;2.63;;;3.90;99.90;;;;;;5094442;28;20195;-55
2021/11/30 07:43:04;;;;;;;3.13;2.83;;;4.00;99.90;;;;;;5057680;28;20190;-52
2021/11/30 07:45:30;;;;;;;2.57;2.37;;;4.00;99.90;;;;;;5075203;28;20702;-51
2021/11/30 07:47:56;;;;;;;2.53;2.17;;;4.00;99.90;;;;;;5088211;28;20427;-53
2021/11/30 07:50:23;;;;;;;3.40;2.60;;;4.00;99.90;;;;;;5075627;28;20162;-53
2021/11/30 07:52:48;;;;;;;2.80;2.60;;;4.00;99.90;;;;;;5074195;28;20431;-61
2021/11/30 07:55:16;;;;;;;3.13;2.83;;;4.00;99.90;;;;;;5075614;28;20834;-62
2021/11/30 07:57:42;;;;;;;3.13;2.28;;;4.00;99.90;;;;;;5074200;28;20162;-61
2021/11/30 08:00:11;;;;;;;2.53;2.30;;;4.00;99.90;;;;;;5075179;28;20186;-62
2021/11/30 08:02:38;;;;;;;3.45;3.15;;;4.00;99.90;;;;;;5074153;28;20428;-62
2021/11/30 08:05:05;;;;;;;4.25;2.58;;;4.00;99.90;;;;;;5073264;28;20185;-62
2021/11/30 08:07:31;;;;;;;3.22;2.70;;;4.00;99.90;;;;;;5069060;28;20284;-62
2021/11/30 08:09:57;;;;;;;2.13;1.90;;;3.90;99.90;;;;;;5059317;28;20264;-62
2021/11/30 08:12:22;;;;;;;2.30;2.10;;;3.80;99.90;;;;;;5071361;28;20177;-61
2021/11/30 08:14:48;;;;;;;2.63;2.43;;;3.70;99.90;;;;;;5086778;28;20208;-61
2021/11/30 08:17:15;;;;;;;2.33;2.10;;;3.70;99.90;;;;;;5075718;28;20174;-61
2021/11/30 08:19:42;;;;;;;2.80;2.42;;;3.70;99.90;;;;;;5086150;28;20485;-61
2021/11/30 08:22:08;;;;;;;2.35;2.05;;;3.70;99.90;;;;;;5091391;28;20285;-61
2021/11/30 08:24:35;;;;;;;2.30;2.10;;;3.60;99.90;;;;;;5079658;28;20269;-61
2021/11/30 08:27:01;;;;;;;3.63;2.28;;;3.60;99.90;;;;;;5070111;28;20907;-61
2021/11/30 08:29:27;;;;;;;2.42;2.15;;;3.70;99.90;;;;;;5069604;28;20178;-57
2021/11/30 08:31:52;;;;;;;2.33;2.13;;;3.60;99.90;;;;;;5052466;28;20593;-62
2021/11/30 08:34:19;;;;;;;2.20;2.00;;;3.70;99.90;;;;;;5069860;28;20272;-60
2021/11/30 08:36:45;;;;;;;2.42;1.80;;;3.70;99.90;;;;;;5052621;28;20196;-61
2021/11/30 08:39:10;;;;;;;5.40;1.80;;;3.80;99.90;;;;;;5069731;28;20647;-61
2021/11/30 08:41:36;;;;;;;2.00;1.63;;;3.90;99.90;;;;;;5070789;28;20178;-62
2021/11/30 08:44:02;;;;;;;2.80;1.87;;;3.80;99.90;;;;;;5070523;28;20583;-61
2021/11/30 08:46:27;;;;;;;2.37;2.17;;;3.90;99.90;;;;;;5071142;28;20174;-61
2021/11/30 08:48:53;;;;;;;2.03;1.83;;;3.90;99.90;;;;;;5070103;28;20184;-61
2021/11/30 08:51:19;;;;;;;2.83;1.57;;;3.90;99.90;;;;;;5070796;28;20275;-61
2021/11/30 08:53:44;;;;;;;2.20;1.90;;;4.00;99.90;;;;;;5069239;28;20726;-61
2021/11/30 08:56:11;;;;;;;1.87;1.67;;;4.00;99.90;;;;;;5070843;28;20175;-61
2021/11/30 08:58:36;;;;;;;1.80;1.60;;;4.00;99.90;;;;;;5070221;28;20261;-60
2021/11/30 09:01:03;;;;;;;1.63;1.53;;;4.00;99.90;;;;;;5060627;28;20181;-60
2021/11/30 09:03:29;;;;;;;1.65;1.55;;;4.10;99.90;;;;;;5069863;28;20162;-61
2021/11/30 09:05:56;;;;;;;2.57;1.90;;;4.10;99.90;;;;;;5068868;28;20197;-61
2021/11/30 09:08:22;;;;;;;1.90;1.58;;;4.20;99.90;;;;;;5052829;28;20189;-59
2021/11/30 09:10:48;;;;;;;2.45;1.70;;;4.20;99.90;;;;;;5069143;28;20232;-53
2021/11/30 09:13:16;;;;;;;2.75;1.60;;;4.20;99.90;;;;;;5062445;28;20182;-58
2021/11/30 09:15:41;;;;;;;2.75;1.30;;;4.20;99.90;;;;;;5073156;28;20261;-60
2021/11/30 09:18:07;;;;;;;1.60;1.40;;;4.20;99.90;;;;;;5072284;28;20305;-61
2021/11/30 09:20:33;;;;;;;2.00;1.90;;;4.30;99.90;;;;;;5084415;28;20184;-61
2021/11/30 09:22:59;;;;;;;1.27;1.17;;;4.30;99.90;;;;;;5087268;28;20221;-61
2021/11/30 09:25:26;;;;;;;1.88;1.50;;;4.30;99.90;;;;;;5084885;28;20446;-60
2021/11/30 09:27:52;;;;;;;1.20;1.10;;;4.30;99.90;;;;;;5069418;28;20693;-60
2021/11/30 09:30:20;;;;;;;1.42;1.33;;;4.30;99.90;;;;;;5070061;28;20196;-61
2021/11/30 09:32:46;;;;;;;1.38;1.10;;;4.20;99.90;;;;;;5075989;28;20623;-58
2021/11/30 09:35:15;;;;;;;1.20;1.10;;;4.30;99.90;;;;;;5068685;28;20193;-61
2021/11/30 09:37:42;;;;;;;2.05;1.40;;;4.30;99.90;;;;;;5074576;28;20185;-61
2021/11/30 09:40:11;;;;;;;1.30;1.20;;;4.30;99.90;;;;;;5070984;28;20216;-56
2021/11/30 09:42:37;;;;;;;1.45;1.35;;;4.40;99.90;;;;;;5078489;28;20262;-61
2021/11/30 09:45:07;;;;;;;1.60;1.43;;;4.30;99.90;;;;;;5089025;28;20219;-55
2021/11/30 09:47:34;;;;;;;1.35;1.25;;;4.40;99.90;;;;;;5076528;28;20192;-61
2021/11/30 09:50:00;;;;;;;1.48;1.10;;;4.40;99.90;;;;;;5070802;28;20554;-61
2021/11/30 09:52:26;;;;;;;1.20;1.10;;;4.30;99.90;;;;;;5071151;28;20190;-60
2021/11/30 09:54:52;;;;;;;1.57;1.40;;;4.30;99.90;;;;;;5080040;28;20569;-61
2021/11/30 09:57:18;;;;;;;1.90;1.50;;;4.30;99.90;;;;;;5080438;28;20432;-59
2021/11/30 09:59:47;;;;;;;1.23;1.13;;;4.40;99.90;;;;;;5087974;28;20341;-60
2021/11/30 10:02:13;;;;;;;1.08;1.00;;;4.50;99.90;;;;;;5065382;28;20275;-60
2021/11/30 10:04:40;;;;;;;1.45;1.35;;;4.50;99.90;;;;;;5057355;28;20325;-60
2021/11/30 10:07:06;;;;;;;1.30;1.20;;;4.50;99.90;;;;;;5076714;28;20182;-60
2021/11/30 10:09:32;;;;;;;1.50;1.40;;;4.60;99.90;;;;;;5081842;28;20178;-58
2021/11/30 10:12:04;;;;;;;1.30;1.20;;;4.60;99.90;;;;;;5068659;28;20439;-58
2021/11/30 10:14:36;;;;;;;1.90;1.30;;;4.60;99.90;;;;;;5063817;28;20184;-59
2021/11/30 10:17:22;;;;;;;1.40;1.30;;;4.70;99.90;;;;;;5080195;28;20234;-60
2021/11/30 10:19:57;;;;;;;1.10;1.00;;;4.70;99.90;;;;;;5055463;28;20254;-60
2021/11/30 10:22:44;;;;;;;1.30;1.00;;;4.80;99.90;;;;;;5073803;28;20221;-60
2021/11/30 10:25:09;;;;;;;1.30;1.20;;;4.70;99.90;;;;;;5088495;28;20204;-60
2021/11/30 10:27:35;;;;;;;1.60;1.40;;;4.80;99.90;;;;;;5081475;28;20174;-61
2021/11/30 10:30:17;;;;;;;1.47;1.37;;;4.70;99.90;;;;;;5075929;28;20212;-62
2021/11/30 10:32:46;;;;;;;1.27;1.17;;;4.70;99.90;;;;;;5082655;28;20181;-61
2021/11/30 10:35:13;;;;;;;1.20;1.10;;;4.80;99.90;;;;;;5076805;28;20180;-58
2021/11/30 10:37:41;;;;;;;1.17;1.05;;;4.80;99.90;;;;;;5083494;28;20531;-60
2021/11/30 10:40:13;;;;;;;1.70;1.30;;;4.80;99.90;;;;;;5055085;28;20675;-60
2021/11/30 10:42:51;;;;;;;1.23;1.13;;;4.90;99.90;;;;;;5069065;28;20177;-59
2021/11/30 10:45:52;;;;;;;1.10;1.00;;;4.90;99.90;;;;;;5074548;28;20204;-60
2021/11/30 10:48:20;;;;;;;1.45;1.35;;;4.90;99.90;;;;;;4970768;28;20195;-60
2021/11/30 10:50:50;;;;;;;1.30;1.20;;;5.00;99.90;;;;;;5048412;28;20204;-59
2021/11/30 10:53:30;;;;;;;1.30;1.20;;;5.10;99.90;;;;;;5070452;28;20190;-60
2021/11/30 10:56:05;;;;;;;1.38;1.02;;;5.10;99.90;;;;;;5068160;28;20584;-59
2021/11/30 10:58:33;;;;;;;1.13;0.90;;;5.10;99.90;;;;;;5069085;28;20192;-59
2021/11/30 11:01:17;;;;;;;1.10;1.00;;;5.10;99.90;;;;;;5078046;28;20531;-59
2021/11/30 11:03:43;;;;;;;1.08;0.98;;;5.10;99.90;;;;;;5063814;28;20189;-60
2021/11/30 11:08:55;;;;;;;0.95;0.95;;;5.00;99.90;;;;;;5067153;28;20531;-60
2021/11/30 11:11:34;;;;;;;1.35;0.90;;;5.10;99.90;;;;;;5070914;28;20223;-60
2021/11/30 11:14:01;;;;;;;1.10;0.88;;;5.10;99.90;;;;;;5070625;28;20296;-56
2021/11/30 11:16:31;;;;;;;1.20;1.10;;;5.10;99.90;;;;;;5068266;28;20220;-57
2021/11/30 11:18:59;;;;;;;1.35;1.25;;;5.20;99.90;;;;;;5069271;28;20202;-61
2021/11/30 11:21:39;;;;;;;1.20;1.10;;;5.20;99.90;;;;;;5088384;28;20256;-60
2021/11/30 11:24:17;;;;;;;0.93;0.90;;;5.20;99.90;;;;;;5075834;28;20654;-60
2021/11/30 11:26:48;;;;;;;2.05;1.20;;;5.30;99.90;;;;;;5088043;28;20707;-61
2021/11/30 11:29:21;;;;;;;1.30;1.20;;;5.30;99.90;;;;;;5077055;28;20181;-60
2021/11/30 11:31:57;;;;;;;1.42;1.33;;;5.40;99.90;;;;;;5088277;28;20189;-58
2021/11/30 11:34:28;;;;;;;0.80;0.80;;;5.50;99.90;;;;;;5079438;28;20672;-60
2021/11/30 11:36:56;;;;;;;1.25;1.15;;;5.50;99.90;;;;;;5087412;28;20217;-60
2021/11/30 11:39:24;;;;;;;1.13;1.02;;;5.50;99.90;;;;;;5081121;28;20212;-61
2021/11/30 11:41:56;;;;;;;0.98;0.90;;;5.60;99.90;;;;;;5088226;28;20188;-63
2021/11/30 11:44:22;;;;;;;1.25;1.15;;;5.60;99.90;;;;;;5073861;28;20216;-60
2021/11/30 11:46:48;;;;;;;1.20;1.10;;;5.60;99.90;;;;;;5082023;28;20224;-58
2021/11/30 11:49:20;;;;;;;1.35;1.20;;;5.70;99.90;;;;;;5083511;28;20985;-60
2021/11/30 11:51:49;;;;;;;1.23;1.10;;;5.60;99.90;;;;;;5086988;28;20214;-60
2021/11/30 11:54:23;;;;;;;1.25;1.15;;;5.60;99.90;;;;;;5076449;28;20189;-61
2021/11/30 11:56:57;;;;;;;1.08;0.98;;;5.60;99.90;;;;;;5067463;28;20174;-60
2021/11/30 11:59:37;;;;;;;1.10;1.02;;;5.60;99.90;;;;;;5067194;28;20574;-61
2021/11/30 12:02:21;;;;;;;1.10;1.00;;;5.50;99.90;;;;;;5072000;28;20265;-61
2021/11/30 12:04:52;;;;;;;1.08;1.00;;;5.60;99.90;;;;;;5067489;28;20712;-61
2021/11/30 12:07:19;;;;;;;1.40;1.30;;;5.50;99.90;;;;;;5070249;28;20668;-60
2021/11/30 12:09:45;;;;;;;1.05;0.95;;;5.50;99.90;;;;;;5069001;28;20552;-61
2021/11/30 12:12:22;;;;;;;1.17;1.07;;;5.60;99.90;;;;;;5073189;28;20189;-61
2021/11/30 12:14:57;;;;;;;1.90;1.00;;;5.50;99.90;;;;;;5079364;28;20310;-60
2021/11/30 12:17:23;;;;;;;1.20;1.10;;;5.50;99.90;;;;;;5076402;28;20205;-61
2021/11/30 12:20:06;;;;;;;1.07;1.00;;;5.50;99.90;;;;;;5074052;28;20244;-60
2021/11/30 12:22:56;;;;;;;1.02;1.02;;;5.40;99.90;;;;;;5082320;28;20233;-61
2021/11/30 12:25:25;;;;;;;0.82;0.82;;;5.40;99.90;;;;;;5067660;28;20197;-61
2021/11/30 12:27:51;;;;;;;1.10;1.00;;;5.50;99.90;;;;;;5069652;28;20184;-61
2021/11/30 12:31:03;;;;;;;1.17;1.08;;;5.40;99.90;;;;;;5069377;28;20718;-61
2021/11/30 12:33:33;;;;;;;0.90;0.90;;;5.30;99.90;;;;;;5047499;28;20193;-61
2021/11/30 12:36:12;;;;;;;1.05;1.05;;;5.30;99.90;;;;;;5068240;28;20718;-61
2021/11/30 12:38:53;;;;;;;0.82;0.82;;;5.20;99.90;;;;;;5066843;28;20208;-61
2021/11/30 12:41:40;;;;;;;1.13;1.00;;;5.10;99.90;;;;;;5069568;28;20165;-62
2021/11/30 12:44:08;;;;;;;1.30;1.20;;;5.00;99.90;;;;;;5066480;28;20584;-60
2021/11/30 12:46:37;;;;;;;1.23;1.00;;;5.10;99.90;;;;;;5070119;28;20166;-61
2021/11/30 12:49:28;;;;;;;1.00;1.00;;;5.00;99.90;;;;;;5066390;28;20275;-58
2021/11/30 12:52:31;;;;;;;1.20;1.10;;;5.00;99.90;;;;;;5063170;28;20184;-60
2021/11/30 12:55:00;;;;;;;1.20;1.10;;;5.00;99.90;;;;;;5070757;28;20181;-60
2021/11/30 12:57:28;;;;;;;1.05;0.90;;;5.00;99.90;;;;;;5070847;28;20268;-61
2021/11/30 12:59:59;;;;;;;1.42;0.80;;;5.10;99.90;;;;;;5069552;28;20209;-61
2021/11/30 13:02:43;;;;;;;1.00;0.90;;;5.10;99.90;;;;;;5071298;28;20938;-61
2021/11/30 13:05:11;;;;;;;0.90;0.90;;;5.20;99.90;;;;;;5070481;28;20181;-60
2021/11/30 13:07:49;;;;;;;1.10;1.00;;;5.30;99.90;;;;;;5070659;28;20173;-61
2021/11/30 13:10:20;;;;;;;0.90;0.90;;;5.30;99.90;;;;;;5069338;28;20192;-61
2021/11/30 13:12:46;;;;;;;0.80;0.70;;;5.30;99.90;;;;;;5070206;28;20265;-60